createdAt,value
2018-04-01T00:01:20.906Z,85.80
2018-04-01T00:03:48.696Z,85.70
2018-04-01T00:06:15.767Z,85.70
2018-04-01T00:08:43.561Z,85.50
2018-04-01T00:11:11.382Z,85.90
2018-04-01T00:13:38.455Z,85.90
2018-04-01T00:16:05.492Z,85.70
2018-04-01T00:18:32.539Z,85.60
2018-04-01T00:20:59.579Z,85.30
2018-04-01T00:23:26.619Z,85.40
2018-04-01T00:25:53.673Z,85.40
2018-04-01T00:28:20.724Z,85.60
2018-04-01T00:30:47.767Z,85.60
2018-04-01T00:33:14.802Z,85.20
2018-04-01T00:35:41.849Z,84.80
2018-04-01T00:38:08.889Z,84.60
2018-04-01T00:40:35.942Z,84.30
2018-04-01T00:43:02.967Z,84.40
2018-04-01T00:45:30.027Z,84.40
2018-04-01T00:47:57.064Z,84.50
2018-04-01T00:50:24.125Z,84.10
2018-04-01T00:52:51.164Z,83.70
2018-04-01T00:55:18.240Z,83.80
2018-04-01T00:57:45.270Z,83.70
2018-04-01T01:00:12.319Z,83.60
2018-04-01T01:02:39.381Z,83.90
2018-04-01T01:05:06.414Z,84.10
2018-04-01T01:07:33.462Z,83.80
2018-04-01T01:10:00.498Z,84.00
2018-04-01T01:12:27.546Z,84.10
2018-04-01T01:14:54.570Z,83.90
2018-04-01T01:17:22.408Z,83.50
2018-04-01T01:19:49.446Z,83.50
2018-04-01T01:22:16.493Z,83.90
2018-04-01T01:24:43.563Z,83.90
2018-04-01T01:27:10.604Z,83.40
2018-04-01T01:29:37.709Z,82.80
2018-04-01T01:32:05.492Z,82.40
2018-04-01T01:34:32.533Z,82.40
2018-04-01T01:36:59.565Z,82.60
2018-04-01T01:39:26.627Z,82.60
2018-04-01T01:41:53.659Z,82.90
2018-04-01T01:44:20.731Z,82.80
2018-04-01T01:46:47.785Z,81.70
2018-04-01T01:49:14.826Z,81.20
2018-04-01T01:51:41.868Z,80.90
2018-04-01T01:54:08.886Z,81.20
2018-04-01T01:56:35.952Z,81.80
2018-04-01T01:59:02.989Z,82.00
2018-04-01T02:01:30.024Z,82.20
2018-04-01T02:03:57.071Z,82.00
2018-04-01T02:06:24.148Z,82.00
2018-04-01T02:08:51.171Z,81.10
2018-04-01T02:11:18.189Z,81.10
2018-04-01T02:13:45.236Z,81.50
2018-04-01T02:16:12.290Z,81.50
2018-04-01T02:18:40.096Z,81.50
2018-04-01T02:21:07.142Z,81.40
2018-04-01T02:23:34.160Z,81.40
2018-04-01T02:26:01.972Z,81.60
2018-04-01T02:28:29.040Z,81.70
2018-04-01T02:30:56.090Z,81.60
2018-04-01T02:33:23.171Z,81.40
2018-04-01T02:35:50.194Z,82.10
2018-04-01T02:38:17.229Z,81.90
2018-04-01T02:40:44.286Z,82.80
2018-04-01T02:43:11.335Z,81.90
2018-04-01T02:45:39.170Z,82.00
2018-04-01T02:48:06.202Z,82.00
2018-04-01T02:50:33.233Z,82.00
2018-04-01T02:53:00.294Z,82.30
2018-04-01T02:55:27.321Z,82.40
2018-04-01T02:57:54.385Z,82.30
2018-04-01T03:00:21.413Z,82.10
2018-04-01T03:02:48.453Z,81.90
2018-04-01T03:05:16.284Z,80.60
2018-04-01T03:07:43.301Z,80.60
2018-04-01T03:10:10.347Z,80.90
2018-04-01T03:12:37.365Z,81.00
2018-04-01T03:15:05.171Z,80.90
2018-04-01T03:17:32.223Z,80.90
2018-04-01T03:19:59.266Z,81.10
2018-04-01T03:22:26.318Z,81.00
2018-04-01T03:24:53.351Z,80.80
2018-04-01T03:27:20.407Z,81.40
2018-04-01T03:29:47.461Z,82.40
2018-04-01T03:32:14.520Z,83.20
2018-04-01T03:34:41.574Z,83.80
2018-04-01T03:37:08.598Z,84.70
2018-04-01T03:39:35.644Z,86.40
2018-04-01T03:42:02.707Z,87.10
2018-04-01T03:44:29.726Z,87.60
2018-04-01T03:46:56.788Z,86.90
2018-04-01T03:49:23.813Z,87.20
2018-04-01T03:51:50.868Z,87.20
2018-04-01T03:54:17.939Z,87.30
2018-04-01T03:56:44.978Z,87.80
2018-04-01T03:59:12.030Z,88.00
2018-04-01T04:01:39.072Z,87.80
2018-04-01T04:04:06.094Z,88.20
2018-04-01T04:06:33.152Z,89.90
2018-04-01T04:09:00.177Z,90.40
2018-04-01T04:11:27.238Z,90.60
2018-04-01T04:13:54.254Z,90.50
2018-04-01T04:16:22.061Z,88.30
2018-04-01T04:18:49.114Z,88.30
2018-04-01T04:21:16.138Z,87.70
2018-04-01T04:23:43.193Z,87.50
2018-04-01T04:26:10.237Z,87.70
2018-04-01T04:28:37.275Z,88.20
2018-04-01T04:31:04.322Z,88.80
2018-04-01T04:33:31.359Z,88.70
2018-04-01T04:35:59.210Z,87.90
2018-04-01T04:38:26.257Z,87.90
2018-04-01T04:40:53.283Z,89.00
2018-04-01T04:43:20.332Z,88.90
2018-04-01T04:45:47.374Z,89.00
2018-04-01T04:48:14.423Z,88.80
2018-04-01T04:50:41.451Z,88.60
2018-04-01T04:53:08.491Z,88.80
2018-04-01T04:55:35.553Z,89.20
2018-04-01T04:58:02.579Z,89.30
2018-04-01T05:00:29.648Z,88.90
2018-04-01T05:02:56.689Z,89.10
2018-04-01T05:05:23.729Z,89.20
2018-04-01T05:07:50.760Z,89.40
2018-04-01T05:10:17.792Z,89.20
2018-04-01T05:12:45.611Z,88.30
2018-04-01T05:15:12.652Z,88.30
2018-04-01T05:17:40.457Z,87.60
2018-04-01T05:20:08.297Z,87.80
2018-04-01T05:22:35.350Z,87.70
2018-04-01T05:25:02.415Z,87.50
2018-04-01T05:27:30.213Z,87.10
2018-04-01T05:29:57.246Z,87.10
2018-04-01T05:32:25.059Z,86.60
2018-04-01T05:34:52.099Z,86.50
2018-04-01T05:37:19.179Z,86.30
2018-04-01T05:39:46.236Z,86.40
2018-04-01T05:42:14.084Z,87.10
2018-04-01T05:44:41.120Z,87.00
2018-04-01T05:47:08.145Z,87.20
2018-04-01T05:49:35.199Z,87.00
2018-04-01T05:52:02.257Z,87.00
2018-04-01T05:54:29.391Z,86.70
2018-04-01T05:56:56.446Z,86.60
2018-04-01T05:59:23.486Z,86.70
2018-04-01T06:01:50.555Z,87.50
2018-04-01T06:04:17.590Z,88.40
2018-04-01T06:06:44.627Z,88.90
2018-04-01T06:09:11.669Z,89.40
2018-04-01T06:11:38.716Z,90.00
2018-04-01T06:14:05.803Z,90.10
2018-04-01T06:16:32.844Z,90.20
2018-04-01T06:18:59.878Z,90.50
2018-04-01T06:21:26.945Z,90.40
2018-04-01T06:23:53.987Z,90.60
2018-04-01T06:26:21.050Z,91.30
2018-04-01T06:28:48.107Z,91.10
2018-04-01T06:31:15.897Z,90.80
2018-04-01T06:33:43.428Z,90.80
2018-04-01T06:36:10.447Z,90.80
2018-04-01T06:38:37.514Z,91.30
2018-04-01T06:41:04.549Z,91.50
2018-04-01T06:43:31.595Z,91.50
2018-04-01T06:45:58.648Z,91.50
2018-04-01T06:48:25.696Z,91.70
2018-04-01T06:50:52.743Z,92.10
2018-04-01T06:53:19.788Z,92.10
2018-04-01T06:55:46.831Z,92.10
2018-04-01T06:58:14.643Z,91.80
2018-04-01T07:00:42.434Z,91.60
2018-04-01T07:03:09.481Z,91.60
2018-04-01T07:05:36.517Z,91.50
2018-04-01T07:08:04.321Z,91.60
2018-04-01T07:10:31.377Z,91.50
2018-04-01T07:12:58.400Z,91.60
2018-04-01T07:15:25.456Z,91.70
2018-04-01T07:17:52.481Z,91.60
2018-04-01T07:20:19.511Z,91.80
2018-04-01T07:22:46.571Z,91.70
2018-04-01T07:25:13.616Z,91.80
2018-04-01T07:27:40.664Z,91.60
2018-04-01T07:30:07.690Z,91.30
2018-04-01T07:32:35.501Z,90.50
2018-04-01T07:35:02.564Z,90.50
2018-04-01T07:37:29.595Z,90.40
2018-04-01T07:39:56.652Z,90.00
2018-04-01T07:42:23.679Z,89.50
2018-04-01T07:44:50.736Z,89.10
2018-04-01T07:47:17.797Z,88.60
2018-04-01T07:49:44.834Z,87.80
2018-04-01T07:52:11.912Z,87.90
2018-04-01T07:54:38.952Z,88.90
2018-04-01T07:57:05.992Z,88.90
2018-04-01T07:59:33.062Z,88.20
2018-04-01T08:02:00.104Z,87.60
2018-04-01T08:04:27.954Z,87.10
2018-04-01T08:06:54.984Z,87.10
2018-04-01T08:09:22.027Z,87.30
2018-04-01T08:11:49.080Z,87.10
2018-04-01T08:14:16.112Z,86.80
2018-04-01T08:16:43.173Z,87.10
2018-04-01T08:19:10.216Z,86.60
2018-04-01T08:21:37.236Z,86.50
2018-04-01T08:24:04.303Z,87.20
2018-04-01T08:26:31.326Z,87.30
2018-04-01T08:28:58.392Z,87.50
2018-04-01T08:31:25.436Z,87.40
2018-04-01T08:33:52.477Z,87.10
2018-04-01T08:36:19.541Z,87.20
2018-04-01T08:38:46.589Z,86.90
2018-04-01T08:41:13.659Z,87.30
2018-04-01T08:43:40.724Z,87.10
2018-04-01T08:46:07.747Z,86.60
2018-04-01T08:48:34.816Z,86.90
2018-04-01T08:51:01.864Z,86.50
2018-04-01T08:53:28.927Z,86.70
2018-04-01T08:55:56.845Z,86.80
2018-04-01T08:58:23.902Z,86.80
2018-04-01T09:00:50.969Z,86.10
2018-04-01T09:03:18.009Z,86.00
2018-04-01T09:05:45.064Z,86.80
2018-04-01T09:08:12.361Z,86.10
2018-04-01T09:10:39.448Z,86.10
2018-04-01T09:13:06.563Z,86.10
2018-04-01T09:15:33.605Z,85.50
2018-04-01T09:18:01.703Z,84.90
2018-04-01T09:20:29.555Z,85.20
2018-04-01T09:22:56.761Z,84.90
2018-04-01T09:25:23.987Z,84.80
2018-04-01T09:27:52.862Z,84.30
2018-04-01T09:30:20.398Z,82.60
2018-04-01T09:32:48.512Z,82.60
2018-04-01T09:35:15.860Z,82.80
2018-04-01T09:37:43.234Z,82.50
2018-04-01T09:40:10.558Z,80.80
2018-04-01T09:42:38.060Z,78.80
2018-04-01T09:45:05.301Z,80.20
2018-04-01T09:47:32.571Z,79.80
2018-04-01T09:50:00.492Z,79.90
2018-04-01T09:52:28.601Z,78.00
2018-04-01T09:54:56.332Z,78.00
2018-04-01T09:57:23.371Z,78.10
2018-04-01T09:59:50.719Z,77.90
2018-04-01T10:02:18.368Z,78.80
2018-04-01T10:04:47.486Z,78.30
2018-04-01T10:07:16.512Z,78.30
2018-04-01T10:09:44.350Z,77.70
2018-04-01T10:12:11.931Z,77.50
2018-04-01T10:14:41.105Z,76.40
2018-04-01T10:17:10.524Z,76.30
2018-04-01T10:19:38.426Z,76.30
2018-04-01T10:22:07.060Z,75.90
2018-04-01T10:24:34.838Z,75.90
2018-04-01T10:27:03.388Z,75.30
2018-04-01T10:29:31.036Z,75.30
2018-04-01T10:31:58.834Z,73.80
2018-04-01T10:34:26.729Z,72.20
2018-04-01T10:36:54.915Z,72.80
2018-04-01T10:39:23.259Z,72.50
2018-04-01T10:41:51.333Z,72.60
2018-04-01T10:44:19.205Z,71.10
2018-04-01T10:46:46.835Z,71.20
2018-04-01T10:49:15.427Z,69.40
2018-04-01T10:51:43.046Z,68.50
2018-04-01T10:54:10.113Z,68.70
2018-04-01T10:56:37.181Z,68.30
2018-04-01T10:59:04.203Z,67.80
2018-04-01T11:01:32.025Z,66.40
2018-04-01T11:03:59.079Z,66.30
2018-04-01T11:06:26.129Z,67.60
2018-04-01T11:08:53.181Z,67.50
2018-04-01T11:11:20.214Z,66.80
2018-04-01T11:13:47.238Z,66.40
2018-04-01T11:16:14.286Z,63.60
2018-04-01T11:18:41.319Z,64.00
2018-04-01T11:21:08.373Z,65.20
2018-04-01T11:23:35.422Z,66.60
2018-04-01T11:26:02.507Z,64.00
2018-04-01T11:28:30.534Z,64.00
2018-04-01T11:30:57.591Z,64.20
2018-04-01T11:33:24.661Z,64.40
2018-04-01T11:35:51.704Z,64.40
2018-04-01T11:38:18.745Z,64.00
2018-04-01T11:40:45.816Z,66.30
2018-04-01T11:43:12.838Z,66.30
2018-04-01T11:45:40.067Z,65.90
2018-04-01T11:48:07.192Z,66.10
2018-04-01T11:50:34.252Z,66.30
2018-04-01T11:53:01.299Z,66.20
2018-04-01T11:55:28.348Z,66.50
2018-04-01T11:57:55.414Z,66.30
2018-04-01T12:00:22.459Z,66.90
2018-04-01T12:02:50.893Z,67.00
2018-04-01T12:05:17.944Z,67.60
2018-04-01T12:07:44.975Z,67.60
2018-04-01T12:10:12.023Z,68.10
2018-04-01T12:12:39.084Z,68.50
2018-04-01T12:15:06.476Z,68.90
2018-04-01T12:17:34.054Z,67.70
2018-04-01T12:20:01.945Z,68.50
2018-04-01T12:22:29.545Z,68.50
2018-04-01T12:24:56.800Z,68.70
2018-04-01T12:27:23.985Z,65.50
2018-04-01T12:29:51.088Z,65.40
2018-04-01T12:32:18.143Z,65.60
2018-04-01T12:34:46.134Z,65.80
2018-04-01T12:37:13.177Z,65.80
2018-04-01T12:39:40.232Z,65.20
2018-04-01T12:42:07.279Z,66.10
2018-04-01T12:44:34.304Z,68.60
2018-04-01T12:47:02.138Z,68.20
2018-04-01T12:49:29.184Z,68.20
2018-04-01T12:51:56.217Z,66.60
2018-04-01T12:54:23.277Z,66.50
2018-04-01T12:56:50.345Z,66.10
2018-04-01T12:59:17.400Z,67.00
2018-04-01T13:01:45.276Z,66.60
2018-04-01T13:04:12.272Z,66.50
2018-04-01T13:06:39.344Z,66.40
2018-04-01T13:09:06.397Z,65.50
2018-04-01T13:11:33.457Z,67.30
2018-04-01T13:14:01.257Z,67.20
2018-04-01T13:16:28.311Z,67.20
2018-04-01T13:18:55.370Z,66.60
2018-04-01T13:21:22.470Z,64.90
2018-04-01T13:23:50.303Z,63.40
2018-04-01T13:26:17.342Z,63.20
2018-04-01T13:28:44.381Z,63.30
2018-04-01T13:31:11.444Z,63.80
2018-04-01T13:33:38.476Z,63.90
2018-04-01T13:36:05.532Z,65.40
2018-04-01T13:38:32.567Z,68.60
2018-04-01T13:40:59.612Z,71.40
2018-04-01T13:43:26.651Z,73.20
2018-04-01T13:45:53.728Z,74.40
2018-04-01T13:48:20.792Z,73.10
2018-04-01T13:50:47.853Z,72.50
2018-04-01T13:53:15.687Z,69.80
2018-04-01T13:55:42.736Z,69.80
2018-04-01T13:58:09.775Z,70.10
2018-04-01T14:00:36.830Z,68.70
2018-04-01T14:03:03.863Z,69.40
2018-04-01T14:05:30.894Z,68.80
2018-04-01T14:07:57.951Z,69.20
2018-04-01T14:10:24.981Z,68.80
2018-04-01T14:12:52.055Z,68.30
2018-04-01T14:15:19.115Z,68.00
2018-04-01T14:17:46.154Z,69.30
2018-04-01T14:20:13.203Z,69.60
2018-04-01T14:22:40.246Z,67.90
2018-04-01T14:25:07.602Z,67.60
2018-04-01T14:27:36.178Z,68.80
2018-04-01T14:30:03.226Z,68.70
2018-04-01T14:32:30.287Z,67.50
2018-04-01T14:34:57.311Z,67.70
2018-04-01T14:37:24.375Z,64.50
2018-04-01T14:39:51.417Z,63.90
2018-04-01T14:42:18.463Z,65.70
2018-04-01T14:44:45.524Z,66.20
2018-04-01T14:47:12.588Z,65.50
2018-04-01T14:49:39.649Z,64.20
2018-04-01T14:52:06.691Z,63.30
2018-04-01T14:54:33.731Z,63.50
2018-04-01T14:57:00.793Z,64.70
2018-04-01T14:59:27.817Z,63.90
2018-04-01T15:01:54.889Z,63.60
2018-04-01T15:04:22.692Z,64.30
2018-04-01T15:06:49.734Z,64.30
2018-04-01T15:09:16.787Z,64.70
2018-04-01T15:11:43.830Z,64.30
2018-04-01T15:14:10.926Z,64.70
2018-04-01T15:16:38.014Z,64.50
2018-04-01T15:19:05.061Z,64.10
2018-04-01T15:21:32.194Z,64.60
2018-04-01T15:24:00.111Z,65.40
2018-04-01T15:26:27.180Z,65.50
2018-04-01T15:28:54.218Z,65.40
2018-04-01T15:31:21.275Z,65.00
2018-04-01T15:33:48.408Z,65.50
2018-04-01T15:36:16.164Z,65.10
2018-04-01T15:38:43.225Z,65.10
2018-04-01T15:41:10.259Z,66.00
2018-04-01T15:43:37.285Z,68.40
2018-04-01T15:46:04.346Z,70.80
2018-04-01T15:48:32.219Z,72.20
2018-04-01T15:50:59.295Z,73.30
2018-04-01T15:53:26.323Z,73.30
2018-04-01T15:55:53.363Z,72.50
2018-04-01T15:58:20.420Z,72.10
2018-04-01T16:00:47.459Z,72.70
2018-04-01T16:03:14.521Z,71.80
2018-04-01T16:05:41.576Z,71.30
2018-04-01T16:08:08.614Z,71.90
2018-04-01T16:10:35.654Z,71.80
2018-04-01T16:13:02.696Z,72.50
2018-04-01T16:15:29.750Z,72.00
2018-04-01T16:17:57.539Z,72.30
2018-04-01T16:20:24.578Z,72.20
2018-04-01T16:22:51.636Z,72.60
2018-04-01T16:25:18.659Z,70.80
2018-04-01T16:27:45.713Z,70.90
2018-04-01T16:30:12.739Z,71.30
2018-04-01T16:32:39.790Z,71.10
2018-04-01T16:35:06.846Z,70.20
2018-04-01T16:37:33.901Z,70.30
2018-04-01T16:40:00.969Z,70.50
2018-04-01T16:42:27.999Z,70.00
2018-04-01T16:44:55.073Z,70.00
2018-04-01T16:47:22.162Z,70.70
2018-04-01T16:49:49.336Z,70.80
2018-04-01T16:52:16.389Z,71.10
2018-04-01T16:54:43.455Z,71.00
2018-04-01T16:57:10.485Z,70.90
2018-04-01T16:59:37.566Z,71.60
2018-04-01T17:02:04.589Z,71.90
2018-04-01T17:04:31.720Z,71.80
2018-04-01T17:06:58.743Z,71.90
2018-04-01T17:09:25.899Z,72.20
2018-04-01T17:11:53.770Z,72.50
2018-04-01T17:14:20.825Z,72.40
2018-04-01T17:16:47.901Z,74.20
2018-04-01T17:19:14.948Z,77.80
2018-04-01T17:21:42.739Z,82.20
2018-04-01T17:24:10.558Z,83.50
2018-04-01T17:26:37.602Z,83.50
2018-04-01T17:29:04.678Z,84.70
2018-04-01T17:31:31.725Z,85.80
2018-04-01T17:33:58.780Z,86.80
2018-04-01T17:36:25.856Z,87.20
2018-04-01T17:38:53.665Z,89.60
2018-04-01T17:41:20.777Z,89.60
2018-04-01T17:43:47.780Z,89.80
2018-04-01T17:46:14.803Z,89.80
2018-04-01T17:48:41.864Z,89.20
2018-04-01T17:51:08.908Z,88.00
2018-04-01T17:53:35.954Z,87.10
2018-04-01T17:56:02.995Z,86.90
2018-04-01T17:58:30.035Z,86.60
2018-04-01T18:00:57.073Z,86.40
2018-04-01T18:03:24.121Z,85.50
2018-04-01T18:05:51.184Z,85.20
2018-04-01T18:08:18.208Z,85.40
2018-04-01T18:10:45.259Z,84.80
2018-04-01T18:13:12.318Z,85.00
2018-04-01T18:15:39.358Z,85.10
2018-04-01T18:18:06.426Z,85.20
2018-04-01T18:20:33.472Z,84.90
2018-04-01T18:23:00.494Z,86.00
2018-04-01T18:25:27.534Z,85.20
2018-04-01T18:27:54.560Z,85.40
2018-04-01T18:30:22.378Z,86.20
2018-04-01T18:32:49.439Z,86.10
2018-04-01T18:35:16.484Z,84.70
2018-04-01T18:37:43.530Z,86.50
2018-04-01T18:40:10.673Z,87.30
2018-04-01T18:42:37.750Z,87.50
2018-04-01T18:45:04.800Z,88.00
2018-04-01T18:47:31.929Z,88.30
2018-04-01T18:49:59.751Z,90.20
2018-04-01T18:52:26.775Z,90.20
2018-04-01T18:54:54.600Z,90.40
2018-04-01T18:57:21.620Z,90.40
2018-04-01T18:59:48.651Z,90.30
2018-04-01T19:02:16.489Z,90.30
2018-04-01T19:04:43.536Z,90.30
2018-04-01T19:07:10.584Z,90.10
2018-04-01T19:09:37.616Z,89.90
2018-04-01T19:12:04.641Z,88.70
2018-04-01T19:14:31.698Z,88.60
2018-04-01T19:17:14.054Z,87.90
2018-04-01T19:19:42.383Z,88.60
2018-04-01T19:22:09.920Z,88.60
2018-04-01T19:24:37.433Z,89.40
2018-04-01T19:27:04.962Z,90.00
2018-04-01T19:29:32.497Z,90.00
2018-04-01T19:32:00.045Z,90.00
2018-04-01T19:34:27.582Z,90.00
2018-04-01T19:36:55.866Z,89.00
2018-04-01T19:39:24.173Z,88.70
2018-04-01T19:41:51.711Z,88.70
2018-04-01T19:44:19.267Z,89.20
2018-04-01T19:46:47.585Z,89.30
2018-04-01T19:49:15.131Z,89.30
2018-04-01T19:51:42.671Z,89.70
2018-04-01T19:54:10.181Z,90.10
2018-04-01T19:56:37.717Z,90.20
2018-04-01T19:59:05.245Z,90.20
2018-04-01T20:01:32.779Z,89.80
2018-04-01T20:04:01.092Z,90.70
2018-04-01T20:06:28.618Z,90.70
2018-04-01T20:08:56.939Z,91.60
2018-04-01T20:11:24.484Z,91.60
2018-04-01T20:13:52.070Z,92.10
2018-04-01T20:16:19.597Z,92.20
2018-04-01T20:18:47.140Z,91.90
2018-04-01T20:21:15.480Z,92.10
2018-04-01T20:23:45.240Z,92.10
2018-04-01T20:26:13.706Z,92.40
2018-04-01T20:28:42.016Z,92.40
2018-04-01T20:31:09.544Z,92.40
2018-04-01T20:33:37.134Z,92.50
2018-04-01T20:36:04.648Z,92.80
2018-04-01T20:38:32.191Z,92.90
2018-04-01T20:40:59.741Z,93.60
2018-04-01T20:43:27.270Z,93.50
2018-04-01T20:45:54.809Z,93.30
2018-04-01T20:48:22.344Z,93.20
2018-04-01T20:50:50.622Z,92.60
2018-04-01T20:53:18.607Z,92.60
2018-04-01T20:55:46.929Z,91.10
2018-04-01T20:58:14.488Z,91.10
2018-04-01T21:00:41.997Z,90.80
2018-04-01T21:03:10.277Z,90.50
2018-04-01T21:05:38.584Z,90.40
2018-04-01T21:08:06.118Z,90.40
2018-04-01T21:10:33.670Z,90.20
2018-04-01T21:13:01.946Z,88.80
2018-04-01T21:15:30.237Z,88.70
2018-04-01T21:17:57.777Z,88.70
2018-04-01T21:20:26.082Z,88.90
2018-04-01T21:22:53.616Z,88.90
2018-04-01T21:25:21.892Z,89.00
2018-04-01T21:27:50.178Z,89.40
2018-04-01T21:30:17.721Z,89.40
2018-04-01T21:32:46.015Z,88.80
2018-04-01T21:35:13.556Z,88.80
2018-04-01T21:37:41.856Z,88.50
2018-04-01T21:40:09.392Z,88.50
2018-04-01T21:42:37.692Z,88.90
2018-04-01T21:45:05.243Z,88.90
2018-04-01T21:47:33.578Z,88.80
2018-04-01T21:50:01.124Z,88.80
2018-04-01T21:52:28.646Z,88.80
2018-04-01T21:54:56.198Z,89.20
2018-04-01T21:57:24.542Z,88.30
2018-04-01T21:59:52.071Z,88.30
2018-04-01T22:02:19.622Z,87.80
2018-04-01T22:04:47.156Z,87.40
2018-04-01T22:07:15.462Z,87.80
2018-04-01T22:09:42.997Z,87.70
2018-04-01T22:12:10.560Z,87.90
2018-04-01T22:14:38.096Z,88.00
2018-04-01T22:17:06.381Z,88.60
2018-04-01T22:19:34.688Z,88.70
2018-04-01T22:22:02.226Z,88.70
2018-04-01T22:24:29.788Z,89.40
2018-04-01T22:26:57.323Z,90.10
2018-04-01T22:29:25.601Z,90.50
2018-04-01T22:31:53.893Z,90.40
2018-04-01T22:34:22.176Z,90.50
2018-04-01T22:36:50.087Z,90.50
2018-04-01T22:39:17.608Z,90.30
2018-04-01T22:41:45.153Z,90.20
2018-04-01T22:44:13.441Z,90.30
2018-04-01T22:46:40.969Z,90.30
2018-04-01T22:49:08.528Z,90.80
2018-04-01T22:51:36.078Z,91.30
2018-04-01T22:54:03.627Z,91.60
2018-04-01T22:56:31.157Z,91.80
2018-04-01T22:58:58.692Z,91.70
2018-04-01T23:01:26.276Z,92.00
2018-04-01T23:03:53.803Z,92.30
2018-04-01T23:06:21.314Z,92.40
2018-04-01T23:08:48.865Z,92.50
2018-04-01T23:11:16.400Z,92.90
2018-04-01T23:13:43.970Z,92.70
2018-04-01T23:16:11.489Z,92.50
2018-04-01T23:18:39.783Z,92.30
2018-04-01T23:21:07.321Z,92.30
2018-04-01T23:23:34.853Z,92.00
2018-04-01T23:26:02.421Z,92.40
2018-04-01T23:28:29.963Z,92.60
2018-04-01T23:30:57.496Z,92.30
2018-04-01T23:33:25.031Z,92.80
2018-04-01T23:35:52.544Z,92.50
2018-04-01T23:38:20.110Z,92.70
2018-04-01T23:40:47.673Z,93.00
2018-04-01T23:43:15.257Z,93.50
2018-04-01T23:45:42.758Z,93.80
2018-04-01T23:48:10.269Z,94.20
2018-04-01T23:50:38.568Z,94.60
2018-04-01T23:53:06.104Z,94.60
2018-04-01T23:55:34.391Z,94.70
2018-04-01T23:58:02.698Z,94.60
